createdAt,value
2023-05-21T00:02:40.307Z,17.30
2023-05-21T00:05:48.353Z,17.34
2023-05-21T00:08:52.746Z,17.34
2023-05-21T00:11:55.844Z,17.35
2023-05-21T00:14:59.244Z,17.32
2023-05-21T00:18:03.038Z,17.39
2023-05-21T00:21:06.359Z,17.33
2023-05-21T00:24:09.353Z,17.37
2023-05-21T00:27:15.100Z,17.28
2023-05-21T00:30:19.336Z,17.32
2023-05-21T00:33:23.021Z,17.32
2023-05-21T00:36:26.256Z,17.32
2023-05-21T00:39:30.027Z,17.26
2023-05-21T00:42:32.949Z,17.23
2023-05-21T00:45:38.752Z,17.19
2023-05-21T00:48:43.921Z,17.13
2023-05-21T00:51:49.260Z,17.07
2023-05-21T00:54:52.761Z,16.99
2023-05-21T00:57:55.754Z,16.94
2023-05-21T01:01:04.359Z,16.96
2023-05-21T01:04:08.322Z,17.01
2023-05-21T01:07:12.612Z,16.73
2023-05-21T01:10:18.603Z,16.70
2023-05-21T01:13:23.238Z,16.67
2023-05-21T01:16:28.731Z,16.65
2023-05-21T01:19:33.192Z,16.68
2023-05-21T01:22:36.479Z,16.60
2023-05-21T01:25:39.666Z,16.50
2023-05-21T01:28:43.892Z,16.48
2023-05-21T01:31:56.004Z,16.44
2023-05-21T01:34:58.468Z,16.37
2023-05-21T01:38:20.966Z,16.38
2023-05-21T01:41:27.027Z,16.27
2023-05-21T01:44:29.887Z,16.24
2023-05-21T01:47:33.937Z,16.17
2023-05-21T01:50:41.209Z,16.12
2023-05-21T01:53:45.041Z,16.10
2023-05-21T01:56:50.252Z,16.03
2023-05-21T01:59:53.753Z,15.91
2023-05-21T02:02:57.051Z,15.91
2023-05-21T02:06:00.462Z,15.85
2023-05-21T02:09:05.676Z,15.82
2023-05-21T02:12:08.834Z,15.81
2023-05-21T02:15:11.596Z,15.83
2023-05-21T02:18:17.632Z,15.76
2023-05-21T02:21:21.801Z,15.71
2023-05-21T02:24:25.353Z,15.68
2023-05-21T02:27:32.459Z,15.58
2023-05-21T02:30:36.156Z,15.52
2023-05-21T02:33:42.649Z,15.45
2023-05-21T02:36:49.402Z,15.36
2023-05-21T02:39:56.957Z,15.31
2023-05-21T02:42:59.687Z,15.27
2023-05-21T02:46:03.923Z,15.21
2023-05-21T02:49:08.226Z,15.24
2023-05-21T02:52:11.337Z,15.19
2023-05-21T02:55:21.004Z,15.16
2023-05-21T02:58:44.466Z,15.05
2023-05-21T03:01:47.435Z,15.02
2023-05-21T03:04:51.808Z,14.97
2023-05-21T03:07:56.640Z,15.00
2023-05-21T03:10:59.743Z,14.92
2023-05-21T03:14:03.362Z,14.88
2023-05-21T03:17:06.939Z,14.84
2023-05-21T03:20:17.180Z,14.82
2023-05-21T03:23:20.441Z,14.80
2023-05-21T03:26:25.093Z,14.75
2023-05-21T03:29:30.328Z,14.70
2023-05-21T03:32:38.798Z,14.77
2023-05-21T03:35:42.177Z,14.84
2023-05-21T03:38:44.626Z,14.81
2023-05-21T03:41:47.874Z,14.83
2023-05-21T03:44:51.793Z,14.92
2023-05-21T03:47:56.501Z,14.92
2023-05-21T03:51:00.860Z,14.99
2023-05-21T03:54:04.184Z,14.98
2023-05-21T03:57:07.591Z,15.04
2023-05-21T04:00:12.419Z,15.16
2023-05-21T04:03:19.228Z,15.16
2023-05-21T04:06:24.265Z,15.26
2023-05-21T04:09:28.169Z,15.37
2023-05-21T04:12:32.882Z,15.41
2023-05-21T04:15:37.335Z,15.58
2023-05-21T04:18:40.725Z,15.72
2023-05-21T04:21:45.633Z,15.88
2023-05-21T04:24:49.596Z,16.03
2023-05-21T04:27:53.392Z,16.29
2023-05-21T04:30:57.834Z,16.49
2023-05-21T04:34:01.089Z,16.76
2023-05-21T04:37:04.517Z,17.13
2023-05-21T04:40:10.043Z,18.88
2023-05-21T04:43:14.299Z,19.78
2023-05-21T04:46:20.466Z,20.67
2023-05-21T04:49:23.170Z,20.78
2023-05-21T04:52:27.949Z,20.41
2023-05-21T04:55:30.710Z,19.84
2023-05-21T04:58:35.165Z,19.13
2023-05-21T05:01:39.018Z,19.53
2023-05-21T05:04:42.181Z,19.68
2023-05-21T05:07:45.463Z,19.22
2023-05-21T05:10:48.030Z,19.35
2023-05-21T05:13:51.623Z,20.23
2023-05-21T05:16:55.054Z,20.29
2023-05-21T05:19:58.220Z,20.93
2023-05-21T05:23:01.811Z,20.47
2023-05-21T05:26:04.925Z,19.80
2023-05-21T05:29:07.389Z,19.62
2023-05-21T05:32:11.653Z,19.97
2023-05-21T05:35:15.352Z,19.78
2023-05-21T05:38:18.461Z,19.65
2023-05-21T05:41:21.558Z,19.57
2023-05-21T05:44:24.227Z,19.43
2023-05-21T05:47:27.020Z,19.60
2023-05-21T05:50:31.001Z,19.66
2023-05-21T05:53:35.891Z,19.68
2023-05-21T05:56:39.167Z,19.77
2023-05-21T05:59:42.660Z,19.97
2023-05-21T06:02:46.092Z,19.80
2023-05-21T06:05:50.556Z,19.97
2023-05-21T06:08:53.472Z,20.09
2023-05-21T06:11:57.810Z,20.09
2023-05-21T06:15:01.273Z,20.09
2023-05-21T06:18:04.573Z,20.24
2023-05-21T06:21:08.515Z,20.26
2023-05-21T06:24:11.821Z,20.27
2023-05-21T06:27:15.111Z,21.05
2023-05-21T06:30:19.646Z,21.38
2023-05-21T06:33:23.845Z,21.30
2023-05-21T06:36:30.449Z,21.24
2023-05-21T06:39:33.428Z,21.40
2023-05-21T06:42:36.191Z,22.43
2023-05-21T06:45:41.687Z,22.01
2023-05-21T06:48:45.365Z,21.57
2023-05-21T06:51:49.484Z,21.42
2023-05-21T06:54:51.959Z,21.53
2023-05-21T06:57:55.142Z,21.46
2023-05-21T07:00:59.023Z,21.48
2023-05-21T07:04:01.730Z,21.56
2023-05-21T07:07:05.305Z,21.82
2023-05-21T07:10:09.078Z,22.03
2023-05-21T07:13:13.298Z,22.53
2023-05-21T07:16:19.075Z,22.80
2023-05-21T07:19:22.196Z,22.94
2023-05-21T07:22:26.694Z,23.45
2023-05-21T07:25:31.702Z,24.37
2023-05-21T07:28:34.728Z,26.63
2023-05-21T07:31:37.658Z,29.21
2023-05-21T07:34:40.562Z,31.03
2023-05-21T07:37:43.505Z,31.94
2023-05-21T07:40:46.262Z,32.75
2023-05-21T07:43:50.265Z,32.19
2023-05-21T07:46:52.943Z,33.11
2023-05-21T07:49:55.944Z,32.00
2023-05-21T07:52:59.010Z,32.16
2023-05-21T07:56:02.342Z,32.75
2023-05-21T07:59:05.524Z,32.33
2023-05-21T08:02:09.442Z,32.04
2023-05-21T08:05:12.110Z,30.90
2023-05-21T08:08:16.345Z,28.56
2023-05-21T08:11:19.126Z,26.52
2023-05-21T08:14:22.351Z,25.41
2023-05-21T08:17:27.240Z,25.01
2023-05-21T08:20:31.798Z,24.87
2023-05-21T08:23:35.304Z,24.74
2023-05-21T08:26:38.233Z,24.77
2023-05-21T08:29:42.333Z,25.83
2023-05-21T08:32:46.941Z,25.94
2023-05-21T08:35:53.941Z,25.39
2023-05-21T08:38:59.359Z,24.57
2023-05-21T08:42:08.090Z,24.61
2023-05-21T08:45:12.109Z,24.50
2023-05-21T08:48:18.368Z,24.39
2023-05-21T08:51:21.983Z,24.47
2023-05-21T08:54:25.501Z,24.56
2023-05-21T08:57:28.979Z,24.47
2023-05-21T09:00:32.696Z,24.29
2023-05-21T09:03:39.523Z,24.53
2023-05-21T09:06:42.104Z,24.93
2023-05-21T09:10:03.491Z,25.02
2023-05-21T09:13:05.958Z,25.30
2023-05-21T09:16:10.110Z,24.89
2023-05-21T09:19:13.037Z,25.07
2023-05-21T09:22:16.163Z,25.29
2023-05-21T09:25:31.019Z,25.19
2023-05-21T09:28:37.107Z,25.09
2023-05-21T09:31:44.716Z,25.39
2023-05-21T09:34:48.326Z,25.54
2023-05-21T09:37:52.858Z,25.58
2023-05-21T09:40:57.679Z,25.61
2023-05-21T09:44:04.238Z,25.57
2023-05-21T09:47:06.301Z,25.61
2023-05-21T09:50:10.458Z,25.88
2023-05-21T09:53:17.042Z,25.88
2023-05-21T09:56:23.642Z,26.08
2023-05-21T09:59:35.797Z,26.27
2023-05-21T10:02:42.227Z,26.26
2023-05-21T10:05:44.945Z,26.18
2023-05-21T10:08:49.050Z,26.11
2023-05-21T10:11:53.657Z,25.81
2023-05-21T10:15:01.891Z,25.98
2023-05-21T10:18:05.236Z,26.02
2023-05-21T10:21:08.705Z,26.00
2023-05-21T10:24:11.599Z,26.31
2023-05-21T10:27:14.670Z,26.43
2023-05-21T10:30:19.115Z,26.45
2023-05-21T10:33:24.800Z,26.19
2023-05-21T10:36:32.803Z,26.40
2023-05-21T10:39:36.120Z,26.29
2023-05-21T10:42:42.039Z,26.56
2023-05-21T10:46:03.592Z,26.72
2023-05-21T10:49:12.680Z,26.87
2023-05-21T10:52:18.228Z,27.38
2023-05-21T10:55:30.461Z,27.42
2023-05-21T10:58:38.560Z,27.52
2023-05-21T11:01:42.102Z,27.70
2023-05-21T11:04:49.752Z,27.58
2023-05-21T11:07:54.412Z,28.02
2023-05-21T11:10:59.452Z,28.20
2023-05-21T11:14:03.360Z,27.58
2023-05-21T11:17:39.173Z,26.92
2023-05-21T11:20:45.737Z,26.33
2023-05-21T11:23:51.630Z,26.35
2023-05-21T11:27:02.623Z,26.48
2023-05-21T11:30:26.590Z,26.01
2023-05-21T11:33:29.595Z,25.71
2023-05-21T11:36:34.708Z,25.52
2023-05-21T11:39:41.847Z,26.22
2023-05-21T11:42:45.316Z,26.64
2023-05-21T11:45:47.792Z,27.00
2023-05-21T11:48:51.338Z,26.68
2023-05-21T11:51:54.218Z,26.12
2023-05-21T11:54:58.923Z,26.06
2023-05-21T11:58:02.780Z,26.43
2023-05-21T12:01:05.221Z,27.15
2023-05-21T12:04:08.204Z,26.93
2023-05-21T12:07:11.222Z,26.63
2023-05-21T12:10:13.970Z,26.20
2023-05-21T12:13:16.250Z,26.14
2023-05-21T12:16:19.421Z,26.48
2023-05-21T12:19:22.379Z,26.84
2023-05-21T12:22:25.740Z,26.59
2023-05-21T12:25:28.599Z,26.17
2023-05-21T12:28:31.345Z,25.89
2023-05-21T12:31:35.965Z,26.24
2023-05-21T12:34:39.465Z,26.94
2023-05-21T12:37:41.962Z,27.42
2023-05-21T12:40:46.095Z,27.21
2023-05-21T12:43:48.737Z,26.77
2023-05-21T12:46:51.821Z,26.80
2023-05-21T12:50:01.058Z,26.75
2023-05-21T12:53:04.059Z,26.26
2023-05-21T12:56:12.981Z,26.44
2023-05-21T12:59:18.629Z,26.79
2023-05-21T13:02:22.996Z,26.25
2023-05-21T13:05:26.056Z,26.02
2023-05-21T13:08:29.139Z,26.05
2023-05-21T13:11:31.610Z,25.79
2023-05-21T13:14:34.662Z,25.64
2023-05-21T13:17:37.390Z,25.56
2023-05-21T13:20:41.004Z,25.96
2023-05-21T13:23:43.813Z,26.27
2023-05-21T13:26:46.942Z,26.37
2023-05-21T13:29:49.635Z,26.89
2023-05-21T13:32:52.811Z,26.94
2023-05-21T13:35:55.454Z,27.24
2023-05-21T13:38:58.628Z,27.59
2023-05-21T13:42:01.952Z,27.64
2023-05-21T13:45:07.910Z,27.50
2023-05-21T13:48:10.368Z,27.29
2023-05-21T13:51:17.591Z,26.61
2023-05-21T13:54:25.674Z,26.29
2023-05-21T13:57:31.192Z,26.54
2023-05-21T14:00:33.903Z,26.79
2023-05-21T14:03:37.226Z,26.70
2023-05-21T14:06:41.531Z,26.83
2023-05-21T14:09:44.485Z,26.92
2023-05-21T14:12:47.616Z,26.85
2023-05-21T14:15:50.428Z,26.72
2023-05-21T14:18:53.172Z,26.65
2023-05-21T14:21:57.136Z,26.58
2023-05-21T14:24:59.833Z,26.53
2023-05-21T14:28:02.275Z,26.50
2023-05-21T14:31:05.203Z,26.52
2023-05-21T14:34:10.665Z,26.69
2023-05-21T14:37:13.337Z,26.74
2023-05-21T14:40:15.990Z,26.69
2023-05-21T14:43:19.236Z,26.92
2023-05-21T14:46:21.990Z,26.71
2023-05-21T14:49:24.693Z,26.63
2023-05-21T14:52:27.416Z,26.40
2023-05-21T14:55:31.226Z,26.54
2023-05-21T14:58:34.547Z,26.52
2023-05-21T15:01:36.770Z,26.30
2023-05-21T15:04:39.644Z,26.42
2023-05-21T15:07:42.343Z,26.28
2023-05-21T15:10:44.873Z,26.32
2023-05-21T15:13:47.800Z,26.30
2023-05-21T15:16:50.640Z,26.46
2023-05-21T15:19:53.510Z,26.39
2023-05-21T15:23:05.077Z,26.37
2023-05-21T15:26:18.488Z,26.34
2023-05-21T15:29:20.963Z,26.39
2023-05-21T15:32:24.238Z,26.39
2023-05-21T15:35:26.618Z,26.41
2023-05-21T15:38:30.485Z,26.43
2023-05-21T15:41:37.903Z,26.28
2023-05-21T15:44:40.803Z,26.27
2023-05-21T15:47:43.689Z,26.14
2023-05-21T15:50:46.580Z,26.07
2023-05-21T15:53:49.169Z,26.09
2023-05-21T15:56:51.939Z,26.02
2023-05-21T15:59:54.743Z,25.96
2023-05-21T16:02:57.792Z,26.02
2023-05-21T16:06:00.380Z,25.84
2023-05-21T16:09:03.033Z,25.79
2023-05-21T16:12:10.963Z,25.76
2023-05-21T16:15:13.588Z,25.70
2023-05-21T16:18:16.621Z,25.56
2023-05-21T16:21:19.425Z,25.53
2023-05-21T16:24:22.116Z,25.56
2023-05-21T16:27:25.758Z,25.52
2023-05-21T16:30:28.950Z,25.48
2023-05-21T16:33:31.493Z,25.42
2023-05-21T16:36:35.925Z,25.45
2023-05-21T16:39:39.446Z,25.31
2023-05-21T16:42:42.757Z,25.20
2023-05-21T16:45:47.044Z,25.10
2023-05-21T16:48:50.361Z,24.98
2023-05-21T16:51:53.294Z,24.93
2023-05-21T16:54:56.027Z,24.89
2023-05-21T16:57:59.938Z,24.78
2023-05-21T17:01:04.102Z,24.66
2023-05-21T17:04:06.548Z,24.57
2023-05-21T17:07:09.465Z,24.50
2023-05-21T17:10:13.263Z,24.50
2023-05-21T17:13:22.211Z,24.41
2023-05-21T17:16:25.708Z,24.28
2023-05-21T17:19:28.791Z,24.18
2023-05-21T17:22:31.908Z,24.06
2023-05-21T17:25:35.036Z,24.04
2023-05-21T17:28:38.272Z,23.98
2023-05-21T17:31:40.965Z,23.91
2023-05-21T17:34:43.861Z,23.70
2023-05-21T17:37:47.632Z,23.65
2023-05-21T17:40:51.981Z,23.52
2023-05-21T17:43:54.712Z,23.32
2023-05-21T17:46:58.537Z,23.18
2023-05-21T17:50:01.136Z,22.92
2023-05-21T17:53:03.831Z,22.76
2023-05-21T17:56:06.920Z,22.56
2023-05-21T17:59:10.062Z,22.43
2023-05-21T18:02:13.126Z,22.28
2023-05-21T18:05:16.426Z,22.14
2023-05-21T18:08:19.098Z,22.04
2023-05-21T18:11:23.812Z,21.92
2023-05-21T18:14:26.465Z,21.86
2023-05-21T18:17:29.928Z,21.69
2023-05-21T18:20:33.525Z,21.53
2023-05-21T18:23:37.743Z,21.39
2023-05-21T18:26:41.238Z,21.26
2023-05-21T18:29:45.056Z,21.13
2023-05-21T18:32:47.538Z,21.00
2023-05-21T18:35:50.413Z,20.86
2023-05-21T18:38:55.163Z,20.77
2023-05-21T18:42:12.077Z,20.60
2023-05-21T18:45:15.953Z,20.48
2023-05-21T18:48:19.386Z,20.39
2023-05-21T18:51:24.001Z,20.24
2023-05-21T18:54:27.444Z,20.16
2023-05-21T18:57:30.814Z,20.00
2023-05-21T19:00:35.111Z,19.87
2023-05-21T19:03:39.781Z,19.75
2023-05-21T19:06:42.443Z,19.67
2023-05-21T19:09:46.453Z,19.60
2023-05-21T19:12:49.390Z,19.52
2023-05-21T19:15:52.972Z,19.42
2023-05-21T19:18:56.149Z,19.31
2023-05-21T19:22:00.377Z,19.22
2023-05-21T19:25:04.397Z,19.13
2023-05-21T19:28:08.700Z,19.11
2023-05-21T19:31:12.106Z,19.09
2023-05-21T19:34:16.562Z,19.02
2023-05-21T19:37:19.850Z,19.00
2023-05-21T19:40:24.173Z,18.97
2023-05-21T19:43:27.653Z,18.95
2023-05-21T19:46:31.873Z,18.90
2023-05-21T19:49:35.684Z,18.84
2023-05-21T19:52:39.634Z,18.80
2023-05-21T19:55:42.896Z,18.76
2023-05-21T19:58:48.653Z,18.74
2023-05-21T20:01:52.979Z,18.68
2023-05-21T20:04:58.846Z,18.59
2023-05-21T20:08:01.941Z,18.56
2023-05-21T20:11:06.046Z,18.50
2023-05-21T20:14:10.516Z,18.43
2023-05-21T20:17:14.832Z,18.38
2023-05-21T20:20:17.717Z,18.35
2023-05-21T20:23:22.062Z,18.31
2023-05-21T20:26:28.912Z,18.25
2023-05-21T20:29:32.929Z,18.23
2023-05-21T20:32:36.743Z,18.26
2023-05-21T20:35:42.252Z,18.24
2023-05-21T20:38:46.509Z,18.18
2023-05-21T20:41:50.404Z,18.15
2023-05-21T20:44:53.639Z,18.09
2023-05-21T20:47:57.519Z,18.15
2023-05-21T20:51:05.608Z,18.16
2023-05-21T20:54:09.214Z,18.24
2023-05-21T20:57:13.846Z,18.32
2023-05-21T21:00:17.773Z,18.40
2023-05-21T21:03:22.201Z,18.40
2023-05-21T21:06:30.801Z,18.44
2023-05-21T21:09:34.151Z,18.45
2023-05-21T21:12:37.903Z,18.48
2023-05-21T21:15:41.154Z,18.50
2023-05-21T21:18:44.639Z,18.48
2023-05-21T21:21:48.788Z,18.47
2023-05-21T21:24:51.621Z,18.45
2023-05-21T21:27:54.936Z,18.40
2023-05-21T21:30:58.118Z,18.38
2023-05-21T21:34:03.512Z,18.32
2023-05-21T21:37:07.377Z,18.34
2023-05-21T21:40:10.997Z,18.26
2023-05-21T21:43:13.461Z,18.27
2023-05-21T21:46:16.508Z,18.27
2023-05-21T21:49:19.954Z,18.33
2023-05-21T21:52:22.639Z,18.43
2023-05-21T21:55:25.624Z,18.52
2023-05-21T21:58:29.319Z,18.57
2023-05-21T22:01:32.716Z,18.61
2023-05-21T22:04:37.545Z,18.62
2023-05-21T22:07:42.505Z,18.67
2023-05-21T22:10:45.293Z,18.71
2023-05-21T22:13:48.776Z,18.73
2023-05-21T22:16:54.676Z,18.74
2023-05-21T22:19:58.370Z,18.76
2023-05-21T22:23:01.732Z,18.76
2023-05-21T22:26:04.436Z,18.76
2023-05-21T22:29:08.361Z,18.76
2023-05-21T22:32:11.557Z,18.69
2023-05-21T22:35:16.218Z,18.67
2023-05-21T22:38:20.199Z,18.65
2023-05-21T22:41:24.729Z,18.61
2023-05-21T22:44:30.911Z,18.58
2023-05-21T22:47:34.626Z,18.49
2023-05-21T22:50:39.282Z,18.41
2023-05-21T22:53:42.870Z,18.35
2023-05-21T22:56:46.036Z,18.27
2023-05-21T22:59:48.822Z,18.24
2023-05-21T23:02:53.821Z,18.18
2023-05-21T23:05:57.987Z,17.96
2023-05-21T23:09:01.248Z,17.81
2023-05-21T23:12:04.543Z,17.80
2023-05-21T23:15:08.020Z,17.73
2023-05-21T23:18:12.705Z,17.55
2023-05-21T23:21:15.681Z,17.40
2023-05-21T23:24:17.996Z,17.34
2023-05-21T23:27:22.250Z,17.30
2023-05-21T23:30:25.463Z,17.10
2023-05-21T23:33:32.204Z,17.05
2023-05-21T23:36:35.052Z,16.98
2023-05-21T23:39:40.627Z,16.84
2023-05-21T23:42:43.693Z,16.81
2023-05-21T23:45:47.785Z,16.67
2023-05-21T23:48:50.394Z,16.66
2023-05-21T23:51:53.450Z,16.58
2023-05-21T23:54:58.426Z,16.50
2023-05-21T23:58:01.510Z,16.48
